Time;durP1;ratioP1;P1;durP2;ratioP2;P2;SDS_P1;SDS_P2;PMS_P1;PMS_P2;Temp;Humidity;BMP_temperature;BMP_pressure;BME280_temperature;BME280_humidity;BME280_pressure;Samples;Min_cycle;Max_cycle;Signal;HPM_P1;HPM_P2
2023/06/03 07:30:15;;;;;;;;;;;;;;;;;;5100428;22;19921;-90
2023/06/03 07:32:40;;;;;;;;;;;;;;;;;;5017983;28;20068;-93
2023/06/03 07:35:06;;;;;;;;;;;;;;;;;;5016758;28;19956;-91
2023/06/03 07:37:32;;;;;;;;;;;;;;;;;;5000540;28;19914;-93
2023/06/03 07:39:57;;;;;;;;;;;;;;;;;;5032437;28;20508;-90
2023/06/03 07:42:22;;;;;;;;;;;;;;;;;;5003831;28;19921;-92
2023/06/03 07:44:48;;;;;;;;;;;;;;;;;;5022036;28;19914;-92
2023/06/03 07:47:14;;;;;;;;;;;;;;;;;;5019897;28;19913;-92
2023/06/03 07:49:43;;;;;;;;;;;;;;;;;;4999747;28;19913;-92
2023/06/03 07:52:11;;;;;;;;;;;;;;;;;;4999931;28;19913;-90
2023/06/03 07:54:36;;;;;;;;;;;;;;;;;;5000890;28;19920;-94
2023/06/03 07:57:02;;;;;;;;;;;;;;;;;;5034485;28;20000;-92
2023/06/03 07:59:28;;;;;;;;;;;;;;;;;;5026938;28;19913;-94
2023/06/03 08:01:57;;;;;;;;;;;;;;;;;;5026361;28;19913;-94
2023/06/03 08:04:35;;;;;;;;;;;;;;;;;;5029833;28;19913;-93
2023/06/03 08:07:02;;;;;;;;;;;;;;;;;;5018694;28;19918;-92
2023/06/03 08:09:34;;;;;;;;;;;;;;;;;;4995996;28;20412;-92
2023/06/03 08:12:00;;;;;;;;;;;;;;;;;;4998399;28;19917;-92
2023/06/03 08:14:26;;;;;;;;;;;;;;;;;;5020810;28;19913;-91
2023/06/03 08:16:52;;;;;;;;;;;;;;;;;;5021058;28;20430;-92
2023/06/03 08:19:17;;;;;;;;;;;;;;;;;;4998664;28;20359;-91
2023/06/03 08:21:46;;;;;;;;;;;;;;;;;;5031838;28;19956;-91
2023/06/03 08:24:13;;;;;;;;;;;;;;;;;;4997874;28;19913;-93
2023/06/03 08:26:39;;;;;;;;;;;;;;;;;;4997163;28;20024;-90
2023/06/03 08:29:04;;;;;;;;;;;;;;;;;;4997461;28;20285;-93
2023/06/03 08:31:34;;;;;;;;;;;;;;;;;;5015184;28;19917;-93
2023/06/03 08:34:01;;;;;;;;;;;;;;;;;;4997490;28;19941;-91
2023/06/03 08:36:26;;;;;;;;;;;;;;;;;;5016582;28;19920;-90
2023/06/03 08:38:52;;;;;;;;;;;;;;;;;;4999944;28;20363;-94
2023/06/03 10:01:33;;;;;;;;;;;;;;;;;;5016292;23;20383;-89
2023/06/03 10:03:59;;;;;;;;;;;;;;;;;;4999139;28;20012;-94
2023/06/03 10:06:25;;;;;;;;;;;;;;;;;;4998516;28;20081;-96
2023/06/03 10:08:50;;;;;;;;;;;;;;;;;;4979919;28;19964;-95
2023/06/03 10:11:15;;;;;;;;;;;;;;;;;;4996692;28;19917;-92
2023/06/03 10:13:41;;;;;;;;;;;;;;;;;;4999173;28;19914;-95
2023/06/03 10:16:10;;;;;;;;;;;;;;;;;;4986146;28;19909;-92
2023/06/03 10:18:40;;;;;;;;;;;;;;;;;;5015175;28;19915;-91
2023/06/03 10:21:10;;;;;;;;;;;;;;;;;;5014064;28;19913;-93
2023/06/03 10:23:39;;;;;;;;;;;;;;;;;;5013823;28;19948;-94
2023/06/03 10:26:06;;;;;;;;;;;;;;;;;;5013937;28;20323;-93
2023/06/03 10:28:31;;;;;;;;;;;;;;;;;;5013949;28;19913;-92
2023/06/03 10:30:57;;;;;;;;;;;;;;;;;;5013983;28;19966;-92
2023/06/03 10:33:23;;;;;;;;;;;;;;;;;;4978515;28;19914;-93
2023/06/03 10:35:49;;;;;;;;;;;;;;;;;;4995918;28;19920;-96
2023/06/03 10:38:14;;;;;;;;;;;;;;;;;;4981452;28;20361;-95
2023/06/03 10:40:42;;;;;;;;;;;;;;;;;;4996350;28;19922;-96
2023/06/03 10:43:09;;;;;;;;;;;;;;;;;;4982145;28;19924;-95
2023/06/03 10:45:36;;;;;;;;;;;;;;;;;;4981174;28;19917;-96
2023/06/03 10:48:05;;;;;;;;;;;;;;;;;;5005457;28;19920;-96
2023/06/03 10:50:43;;;;;;;;;;;;;;;;;;4983756;28;20380;-92
2023/06/03 10:53:11;;;;;;;;;;;;;;;;;;4996678;28;19964;-96
2023/06/03 10:55:42;;;;;;;;;;;;;;;;;;5006277;28;19905;-96
2023/06/03 10:58:11;;;;;;;;;;;;;;;;;;5035538;22;19921;-96
2023/06/03 11:01:06;;;;;;;;;;;;;;;;;;5005013;28;19913;-96
2023/06/03 11:03:40;;;;;;;;;;;;;;;;;;4995817;28;19913;-94
2023/06/03 11:06:32;;;;;;;;;;;;;;;;;;5008546;28;19951;-95
2023/06/03 11:09:05;;;;;;;;;;;;;;;;;;4988397;28;19918;-94
2023/06/03 11:11:43;;;;;;;;;;;;;;;;;;5001211;28;20000;-95
2023/06/03 11:14:48;;;;;;;;;;;;;;;;;;5002378;28;19913;-96
2023/06/03 11:17:15;;;;;;;;;;;;;;;;;;4999742;28;20435;-95
2023/06/03 11:19:43;;;;;;;;;;;;;;;;;;5000623;28;19924;-94
2023/06/03 11:22:09;;;;;;;;;;;;;;;;;;5001033;28;19913;-93
2023/06/03 11:24:38;;;;;;;;;;;;;;;;;;5004304;28;19913;-94
2023/06/03 11:27:09;;;;;;;;;;;;;;;;;;5001054;28;20353;-94
2023/06/03 11:29:51;;;;;;;;;;;;;;;;;;5000994;28;19920;-95
2023/06/03 11:32:27;;;;;;;;;;;;;;;;;;4999551;28;19964;-95
2023/06/03 11:34:59;;;;;;;;;;;;;;;;;;5002272;28;20371;-94
2023/06/03 11:37:40;;;;;;;;;;;;;;;;;;5003355;28;19919;-93
2023/06/03 11:40:07;;;;;;;;;;;;;;;;;;4999807;28;20391;-93
2023/06/03 11:42:32;;;;;;;;;;;;;;;;;;4986126;28;20011;-94
2023/06/03 11:45:16;;;;;;;;;;;;;;;;;;5032407;28;20002;-95
2023/06/03 11:47:50;;;;;;;;;;;;;;;;;;5033589;28;20291;-94
2023/06/03 11:50:16;;;;;;;;;;;;;;;;;;5000766;28;19924;-94
2023/06/03 11:52:41;;;;;;;;;;;;;;;;;;5003425;28;19913;-93
2023/06/03 11:55:06;;;;;;;;;;;;;;;;;;5001571;28;20004;-94
2023/06/03 11:57:33;;;;;;;;;;;;;;;;;;5001458;28;19944;-92
2023/06/03 11:59:59;;;;;;;;;;;;;;;;;;5003690;28;19918;-94
2023/06/03 12:02:24;;;;;;;;;;;;;;;;;;5000085;28;19960;-95
2023/06/03 12:04:50;;;;;;;;;;;;;;;;;;5001756;28;19913;-94
2023/06/03 12:07:15;;;;;;;;;;;;;;;;;;4999823;28;20363;-93
2023/06/03 12:09:41;;;;;;;;;;;;;;;;;;5000833;28;20310;-93
2023/06/03 12:12:07;;;;;;;;;;;;;;;;;;4999127;28;19921;-95
2023/06/03 12:14:33;;;;;;;;;;;;;;;;;;5002833;28;19913;-94
2023/06/03 12:17:09;;;;;;;;;;;;;;;;;;4998579;28;19913;-94
2023/06/03 12:19:38;;;;;;;;;;;;;;;;;;4997581;28;19913;-94
2023/06/03 12:22:03;;;;;;;;;;;;;;;;;;5001120;28;20024;-93
2023/06/03 12:24:30;;;;;;;;;;;;;;;;;;4998877;28;20452;-94
2023/06/03 12:26:55;;;;;;;;;;;;;;;;;;5027108;28;19929;-94
2023/06/03 12:29:21;;;;;;;;;;;;;;;;;;4998859;28;19913;-93
2023/06/03 12:31:59;;;;;;;;;;;;;;;;;;5002397;28;19924;-94
2023/06/03 12:34:44;;;;;;;;;;;;;;;;;;4996625;28;19967;-93
2023/06/03 12:37:11;;;;;;;;;;;;;;;;;;4998526;28;19909;-93
2023/06/03 12:39:49;;;;;;;;;;;;;;;;;;4999647;28;19917;-94
2023/06/03 12:42:16;;;;;;;;;;;;;;;;;;5000801;28;19917;-94
2023/06/03 12:44:48;;;;;;;;;;;;;;;;;;4997586;28;19913;-93
2023/06/03 12:47:15;;;;;;;;;;;;;;;;;;4997370;28;19914;-94
2023/06/03 12:49:41;;;;;;;;;;;;;;;;;;4999722;28;19913;-94
2023/06/03 12:52:10;;;;;;;;;;;;;;;;;;4997753;28;19909;-94
2023/06/03 12:54:36;;;;;;;;;;;;;;;;;;5000517;28;20015;-93
2023/06/03 12:57:02;;;;;;;;;;;;;;;;;;4997881;28;19918;-93
2023/06/03 12:59:27;;;;;;;;;;;;;;;;;;5000670;28;19913;-93
2023/06/03 13:01:54;;;;;;;;;;;;;;;;;;4999019;28;19913;-95
2023/06/03 13:04:19;;;;;;;;;;;;;;;;;;5023926;28;19960;-92
2023/06/03 13:06:45;;;;;;;;;;;;;;;;;;5027536;28;19917;-91
2023/06/03 13:09:10;;;;;;;;;;;;;;;;;;5026447;28;19913;-96
2023/06/03 13:11:35;;;;;;;;;;;;;;;;;;5006791;28;20331;-96
2023/06/03 13:14:01;;;;;;;;;;;;;;;;;;5028454;28;19920;-96
2023/06/03 13:16:26;;;;;;;;;;;;;;;;;;5032918;28;19936;-96
2023/06/03 13:18:51;;;;;;;;;;;;;;;;;;5001389;28;20696;-96
2023/06/03 13:21:17;;;;;;;;;;;;;;;;;;5007689;28;19917;-95
2023/06/03 13:23:42;;;;;;;;;;;;;;;;;;5005380;28;19914;-96
2023/06/03 13:26:07;;;;;;;;;;;;;;;;;;5002238;28;19913;-96
2023/06/03 13:28:33;;;;;;;;;;;;;;;;;;4997954;28;19913;-95
2023/06/03 13:30:58;;;;;;;;;;;;;;;;;;5029584;28;19921;-96
2023/06/03 13:33:23;;;;;;;;;;;;;;;;;;5006802;28;19913;-96
2023/06/03 13:35:49;;;;;;;;;;;;;;;;;;5006055;28;19921;-96
2023/06/03 13:38:15;;;;;;;;;;;;;;;;;;5009311;28;19913;-96
2023/06/03 13:40:40;;;;;;;;;;;;;;;;;;5035154;28;19913;-96
2023/06/03 13:43:06;;;;;;;;;;;;;;;;;;5029638;28;19975;-96
2023/06/03 13:45:31;;;;;;;;;;;;;;;;;;5008904;28;19901;-91
2023/06/03 13:47:57;;;;;;;;;;;;;;;;;;5046457;28;19939;-94
2023/06/03 13:50:22;;;;;;;;;;;;;;;;;;5021899;28;19932;-94
2023/06/03 13:52:48;;;;;;;;;;;;;;;;;;5025530;28;19941;-94
2023/06/03 13:55:13;;;;;;;;;;;;;;;;;;5020653;28;19898;-92
2023/06/03 13:57:39;;;;;;;;;;;;;;;;;;5030978;28;19922;-96
2023/06/03 14:00:04;;;;;;;;;;;;;;;;;;5008419;28;20378;-96
2023/06/03 14:02:30;;;;;;;;;;;;;;;;;;5034181;28;19920;-95
2023/06/03 14:04:57;;;;;;;;;;;;;;;;;;5001736;28;20311;-96
2023/06/03 14:07:22;;;;;;;;;;;;;;;;;;4996240;28;19929;-91
2023/06/03 14:09:47;;;;;;;;;;;;;;;;;;4995796;28;19913;-96
2023/06/03 14:12:13;;;;;;;;;;;;;;;;;;5000274;28;19921;-95
2023/06/03 14:14:38;;;;;;;;;;;;;;;;;;5000012;28;20000;-96
2023/06/03 14:17:04;;;;;;;;;;;;;;;;;;5026687;28;19921;-95
2023/06/03 14:19:29;;;;;;;;;;;;;;;;;;5021670;28;19917;-96
2023/06/03 14:21:55;;;;;;;;;;;;;;;;;;5004041;28;20166;-88
2023/06/03 14:24:20;;;;;;;;;;;;;;;;;;4997393;28;19914;-86
2023/06/03 14:26:45;;;;;;;;;;;;;;;;;;5027519;28;19927;-89
2023/06/03 14:29:11;;;;;;;;;;;;;;;;;;5021764;28;19983;-90
2023/06/03 14:31:36;;;;;;;;;;;;;;;;;;5025635;28;20339;-89
2023/06/03 14:34:04;;;;;;;;;;;;;;;;;;5021942;28;19944;-91
2023/06/03 14:36:29;;;;;;;;;;;;;;;;;;4998718;28;19932;-86
2023/06/03 14:38:55;;;;;;;;;;;;;;;;;;5012406;28;20048;-86
2023/06/03 14:41:20;;;;;;;;;;;;;;;;;;5018011;28;19945;-88
2023/06/03 14:43:45;;;;;;;;;;;;;;;;;;5021276;28;19913;-86
2023/06/03 14:46:11;;;;;;;;;;;;;;;;;;5031440;28;20457;-85
2023/06/03 14:48:36;;;;;;;;;;;;;;;;;;5031796;28;20367;-86
2023/06/03 14:51:01;;;;;;;;;;;;;;;;;;5031583;28;19967;-86
2023/06/03 14:53:27;;;;;;;;;;;;;;;;;;5031773;28;19920;-86
2023/06/03 14:55:52;;;;;;;;;;;;;;;;;;5025731;28;19913;-87
2023/06/03 14:58:18;;;;;;;;;;;;;;;;;;5011981;28;19917;-87
2023/06/03 15:00:44;;;;;;;;;;;;;;;;;;5001937;28;19960;-87
2023/06/03 15:03:10;;;;;;;;;;;;;;;;;;5013450;28;19913;-87
2023/06/03 15:05:35;;;;;;;;;;;;;;;;;;5013885;28;19914;-87
2023/06/03 15:08:00;;;;;;;;;;;;;;;;;;5014337;28;19921;-87
2023/06/03 15:10:26;;;;;;;;;;;;;;;;;;5014540;28;19918;-86
2023/06/03 15:12:51;;;;;;;;;;;;;;;;;;5012890;28;19913;-86
2023/06/03 15:15:16;;;;;;;;;;;;;;;;;;5012835;28;19917;-87
2023/06/03 15:17:41;;;;;;;;;;;;;;;;;;5012967;28;19919;-87
2023/06/03 15:20:07;;;;;;;;;;;;;;;;;;4995309;28;20261;-87
2023/06/03 16:57:52;;;;;;;;;;;;;;;;;;4973980;23;1583610;-86
2023/06/03 17:00:18;;;;;;;;;;;;;;;;;;4999153;28;20012;-91
2023/06/03 17:02:43;;;;;;;;;;;;;;;;;;4998560;28;19909;-85
2023/06/03 17:05:08;;;;;;;;;;;;;;;;;;5015809;28;19920;-85
2023/06/03 17:07:34;;;;;;;;;;;;;;;;;;5015197;28;20391;-84
2023/06/03 17:09:59;;;;;;;;;;;;;;;;;;5015527;28;19961;-84
2023/06/03 17:12:25;;;;;;;;;;;;;;;;;;5016390;28;19914;-85
2023/06/03 17:14:50;;;;;;;;;;;;;;;;;;5015204;28;20367;-85
2023/06/03 17:17:17;;;;;;;;;;;;;;;;;;5015482;28;19920;-85
2023/06/03 17:19:43;;;;;;;;;;;;;;;;;;5015559;28;19972;-85
2023/06/03 17:22:08;;;;;;;;;;;;;;;;;;5015539;28;20315;-85
2023/06/03 17:24:33;;;;;;;;;;;;;;;;;;5015087;28;19913;-85
2023/06/03 17:26:59;;;;;;;;;;;;;;;;;;4997772;28;19922;-85
2023/06/03 17:29:24;;;;;;;;;;;;;;;;;;5015051;28;19920;-85
2023/06/03 17:31:49;;;;;;;;;;;;;;;;;;5015420;28;20364;-85
2023/06/03 17:34:15;;;;;;;;;;;;;;;;;;5014907;28;19989;-85
2023/06/03 17:36:40;;;;;;;;;;;;;;;;;;5015003;28;19913;-84
2023/06/03 17:39:05;;;;;;;;;;;;;;;;;;5015174;28;19948;-84
2023/06/03 17:41:31;;;;;;;;;;;;;;;;;;5014831;28;19924;-84
2023/06/03 17:43:56;;;;;;;;;;;;;;;;;;5014648;28;19914;-85
2023/06/03 17:46:21;;;;;;;;;;;;;;;;;;5021560;28;19917;-85
2023/06/03 17:48:47;;;;;;;;;;;;;;;;;;5032837;28;19913;-85
2023/06/03 17:51:12;;;;;;;;;;;;;;;;;;5014576;28;19914;-84
2023/06/03 17:53:37;;;;;;;;;;;;;;;;;;5020310;28;19913;-85
2023/06/03 17:56:02;;;;;;;;;;;;;;;;;;5034429;28;19913;-85
2023/06/03 17:58:28;;;;;;;;;;;;;;;;;;5034294;28;20016;-84
2023/06/03 18:00:53;;;;;;;;;;;;;;;;;;5034282;28;20007;-85
2023/06/03 18:03:19;;;;;;;;;;;;;;;;;;5019143;28;20315;-85
2023/06/03 18:05:45;;;;;;;;;;;;;;;;;;5014513;28;20269;-86
2023/06/03 18:08:10;;;;;;;;;;;;;;;;;;5014416;28;19953;-85
2023/06/03 18:10:35;;;;;;;;;;;;;;;;;;5014411;28;19959;-85
2023/06/03 18:13:01;;;;;;;;;;;;;;;;;;5014678;28;19948;-85
2023/06/03 18:15:26;;;;;;;;;;;;;;;;;;5013975;28;19920;-85
2023/06/03 18:17:53;;;;;;;;;;;;;;;;;;5019471;28;19914;-84
2023/06/03 18:20:18;;;;;;;;;;;;;;;;;;5019905;28;19913;-88
2023/06/03 18:22:44;;;;;;;;;;;;;;;;;;5034011;28;19924;-88
2023/06/03 18:25:10;;;;;;;;;;;;;;;;;;5023796;28;19913;-88
2023/06/03 18:27:35;;;;;;;;;;;;;;;;;;5014434;28;20008;-88
2023/06/03 18:30:00;;;;;;;;;;;;;;;;;;5014393;28;20256;-89
2023/06/03 18:32:26;;;;;;;;;;;;;;;;;;5029059;28;19913;-88
2023/06/03 18:34:51;;;;;;;;;;;;;;;;;;4994662;28;19918;-89
2023/06/03 18:37:16;;;;;;;;;;;;;;;;;;4993134;28;20357;-87
2023/06/03 18:39:41;;;;;;;;;;;;;;;;;;4977014;28;19913;-87
2023/06/03 18:42:07;;;;;;;;;;;;;;;;;;4994781;28;19964;-88
2023/06/03 18:44:32;;;;;;;;;;;;;;;;;;5013621;28;19914;-88
2023/06/03 18:46:58;;;;;;;;;;;;;;;;;;5014177;28;19918;-90
2023/06/03 18:49:24;;;;;;;;;;;;;;;;;;4994525;28;19913;-88
2023/06/03 18:51:49;;;;;;;;;;;;;;;;;;5033054;28;19958;-87
2023/06/03 18:54:14;;;;;;;;;;;;;;;;;;5016013;28;20055;-89
2023/06/03 18:56:40;;;;;;;;;;;;;;;;;;5016414;28;19913;-89
2023/06/03 18:59:05;;;;;;;;;;;;;;;;;;5033858;28;19956;-88
2023/06/03 19:01:31;;;;;;;;;;;;;;;;;;5013840;28;19913;-88
2023/06/03 19:03:58;;;;;;;;;;;;;;;;;;4998679;28;20399;-88
2023/06/03 19:06:24;;;;;;;;;;;;;;;;;;5030973;28;19980;-89
2023/06/03 19:08:51;;;;;;;;;;;;;;;;;;4998319;28;20306;-89
2023/06/03 19:11:16;;;;;;;;;;;;;;;;;;5026269;28;19917;-90
2023/06/03 19:13:42;;;;;;;;;;;;;;;;;;5025569;28;19968;-90
2023/06/03 19:16:07;;;;;;;;;;;;;;;;;;5026879;28;19917;-87
2023/06/03 19:18:32;;;;;;;;;;;;;;;;;;5028555;28;20425;-88
2023/06/03 19:20:58;;;;;;;;;;;;;;;;;;5026776;28;19920;-88
2023/06/03 19:23:23;;;;;;;;;;;;;;;;;;5002617;28;19913;-88
2023/06/03 19:25:48;;;;;;;;;;;;;;;;;;5030631;28;19936;-87
2023/06/03 19:28:14;;;;;;;;;;;;;;;;;;5023548;28;19913;-83
2023/06/03 19:30:39;;;;;;;;;;;;;;;;;;4998003;28;20414;-84
2023/06/03 19:33:04;;;;;;;;;;;;;;;;;;5021594;28;20371;-85
2023/06/03 19:35:30;;;;;;;;;;;;;;;;;;4997555;28;20360;-85
2023/06/03 19:37:55;;;;;;;;;;;;;;;;;;5021452;28;19913;-85
2023/06/03 19:40:20;;;;;;;;;;;;;;;;;;5002215;28;19909;-88
2023/06/03 19:42:46;;;;;;;;;;;;;;;;;;5019394;28;19921;-88
2023/06/03 19:45:12;;;;;;;;;;;;;;;;;;5020138;28;20388;-86
2023/06/03 19:47:37;;;;;;;;;;;;;;;;;;5028459;28;19919;-87
2023/06/03 19:50:03;;;;;;;;;;;;;;;;;;5027179;28;19913;-85
2023/06/03 19:52:28;;;;;;;;;;;;;;;;;;5015699;28;19920;-85
2023/06/03 19:54:53;;;;;;;;;;;;;;;;;;5020582;28;20004;-89
2023/06/03 19:57:20;;;;;;;;;;;;;;;;;;5028035;28;19917;-86
2023/06/03 19:59:46;;;;;;;;;;;;;;;;;;5000026;28;20332;-88
2023/06/03 20:02:11;;;;;;;;;;;;;;;;;;5030005;28;20000;-88
2023/06/03 20:04:36;;;;;;;;;;;;;;;;;;5028890;28;20352;-89
2023/06/03 20:07:02;;;;;;;;;;;;;;;;;;5030981;28;19917;-86
2023/06/03 20:09:27;;;;;;;;;;;;;;;;;;4997390;28;20388;-87
2023/06/03 20:11:52;;;;;;;;;;;;;;;;;;5020699;28;19910;-88
2023/06/03 20:14:18;;;;;;;;;;;;;;;;;;5000743;28;19918;-86
2023/06/03 20:16:43;;;;;;;;;;;;;;;;;;4998071;28;20592;-88
2023/06/03 20:19:09;;;;;;;;;;;;;;;;;;5029495;28;19913;-88
2023/06/03 20:21:37;;;;;;;;;;;;;;;;;;5017512;28;19913;-88
2023/06/03 20:24:02;;;;;;;;;;;;;;;;;;4997916;28;19909;-88
2023/06/03 20:26:27;;;;;;;;;;;;;;;;;;4997215;28;19924;-88
2023/06/03 20:28:53;;;;;;;;;;;;;;;;;;5028360;28;19919;-86
2023/06/03 20:31:18;;;;;;;;;;;;;;;;;;5021650;28;19914;-89
2023/06/03 20:33:44;;;;;;;;;;;;;;;;;;4998505;28;20011;-89
2023/06/03 20:36:09;;;;;;;;;;;;;;;;;;5016475;28;19918;-87
2023/06/03 20:38:35;;;;;;;;;;;;;;;;;;4999047;28;19914;-89
2023/06/03 20:41:00;;;;;;;;;;;;;;;;;;4999028;28;19936;-89
2023/06/03 20:43:25;;;;;;;;;;;;;;;;;;5016499;28;20000;-90
2023/06/03 20:45:52;;;;;;;;;;;;;;;;;;5016106;28;19913;-90
2023/06/03 20:48:18;;;;;;;;;;;;;;;;;;5015877;28;20359;-88
2023/06/03 20:50:43;;;;;;;;;;;;;;;;;;5016360;28;19913;-88
2023/06/03 20:53:08;;;;;;;;;;;;;;;;;;5016006;28;19913;-88
2023/06/03 20:55:35;;;;;;;;;;;;;;;;;;5016032;28;20280;-87
2023/06/03 20:58:03;;;;;;;;;;;;;;;;;;4998270;28;19999;-87
2023/06/03 21:00:28;;;;;;;;;;;;;;;;;;5016040;28;20012;-89
2023/06/03 21:02:54;;;;;;;;;;;;;;;;;;5015907;28;19961;-88
2023/06/03 21:05:19;;;;;;;;;;;;;;;;;;4998330;28;20043;-89
2023/06/03 21:07:45;;;;;;;;;;;;;;;;;;5016094;28;20368;-88
2023/06/03 21:10:10;;;;;;;;;;;;;;;;;;4997919;28;19913;-90
2023/06/03 21:12:35;;;;;;;;;;;;;;;;;;5015981;28;19916;-88
2023/06/03 21:15:01;;;;;;;;;;;;;;;;;;5015903;28;19913;-89
2023/06/03 21:17:26;;;;;;;;;;;;;;;;;;4998222;28;19944;-91
2023/06/03 21:19:51;;;;;;;;;;;;;;;;;;5015773;28;19913;-88
2023/06/03 21:22:17;;;;;;;;;;;;;;;;;;5015499;28;19963;-89
2023/06/03 21:24:43;;;;;;;;;;;;;;;;;;5015541;28;19920;-89
2023/06/03 21:27:08;;;;;;;;;;;;;;;;;;5015477;28;19918;-88
2023/06/03 21:29:34;;;;;;;;;;;;;;;;;;5015583;28;19921;-87
2023/06/03 21:32:00;;;;;;;;;;;;;;;;;;5015494;28;19909;-88
2023/06/03 21:34:25;;;;;;;;;;;;;;;;;;4997884;28;19921;-89
2023/06/03 21:36:51;;;;;;;;;;;;;;;;;;4997352;28;19914;-89
2023/06/03 21:39:16;;;;;;;;;;;;;;;;;;5015603;28;20406;-88
2023/06/03 21:41:41;;;;;;;;;;;;;;;;;;5015677;28;20000;-87
2023/06/03 21:44:07;;;;;;;;;;;;;;;;;;4997841;28;19952;-87
2023/06/03 21:46:32;;;;;;;;;;;;;;;;;;4997778;28;19913;-87
2023/06/03 21:48:57;;;;;;;;;;;;;;;;;;5015939;28;19975;-89
2023/06/03 21:51:22;;;;;;;;;;;;;;;;;;5016134;28;19944;-89
2023/06/03 21:53:48;;;;;;;;;;;;;;;;;;5016151;28;19918;-89
2023/06/03 21:56:13;;;;;;;;;;;;;;;;;;5015961;28;19955;-88
2023/06/03 21:58:38;;;;;;;;;;;;;;;;;;5015898;28;19917;-87
2023/06/03 22:01:04;;;;;;;;;;;;;;;;;;4997286;28;19929;-87
2023/06/03 22:03:29;;;;;;;;;;;;;;;;;;5014827;28;19914;-87
2023/06/03 22:05:54;;;;;;;;;;;;;;;;;;5014745;28;19920;-90
2023/06/03 22:08:20;;;;;;;;;;;;;;;;;;5015000;28;20265;-88
2023/06/03 22:10:45;;;;;;;;;;;;;;;;;;5015421;28;20364;-90
2023/06/03 22:13:11;;;;;;;;;;;;;;;;;;5015406;28;19920;-87
2023/06/03 22:15:36;;;;;;;;;;;;;;;;;;5014891;28;19953;-87
2023/06/03 22:18:01;;;;;;;;;;;;;;;;;;5014959;28;19953;-90
2023/06/03 22:20:27;;;;;;;;;;;;;;;;;;5015004;28;20055;-87
2023/06/03 22:22:52;;;;;;;;;;;;;;;;;;4997037;28;19949;-86
